createdAt,value
2023-05-28T00:01:35.972Z,9.70
2023-05-28T00:04:06.370Z,8.52
2023-05-28T00:06:36.752Z,9.40
2023-05-28T00:09:07.114Z,10.23
2023-05-28T00:11:37.458Z,9.10
2023-05-28T00:14:08.153Z,9.32
2023-05-28T00:16:38.921Z,12.27
2023-05-28T00:19:09.320Z,11.37
2023-05-28T00:21:41.327Z,9.27
2023-05-28T00:24:13.008Z,12.63
2023-05-28T00:26:43.578Z,11.20
2023-05-28T00:29:16.872Z,7.88
2023-05-28T00:31:47.157Z,11.65
2023-05-28T00:34:17.484Z,10.63
2023-05-28T00:36:47.950Z,9.40
2023-05-28T00:39:22.030Z,10.35
2023-05-28T00:42:03.364Z,12.25
2023-05-28T00:44:39.440Z,11.23
2023-05-28T00:47:10.178Z,10.65
2023-05-28T00:49:40.838Z,15.25
2023-05-28T00:52:13.022Z,11.43
2023-05-28T00:54:43.473Z,10.43
2023-05-28T00:57:14.478Z,13.90
2023-05-28T00:59:46.265Z,9.93
2023-05-28T01:02:16.968Z,9.52
2023-05-28T01:04:47.340Z,10.48
2023-05-28T01:07:17.856Z,9.90
2023-05-28T01:09:48.270Z,10.45
2023-05-28T01:12:19.425Z,10.65
2023-05-28T01:14:51.361Z,16.67
2023-05-28T01:17:22.670Z,9.52
2023-05-28T01:19:53.431Z,14.30
2023-05-28T01:22:31.280Z,11.13
2023-05-28T01:25:04.144Z,12.23
2023-05-28T01:27:34.823Z,11.73
2023-05-28T01:30:05.681Z,9.17
2023-05-28T01:32:36.703Z,10.85
2023-05-28T01:37:55.850Z,8.98
2023-05-28T01:40:28.307Z,9.23
2023-05-28T01:43:00.368Z,13.80
2023-05-28T01:45:31.844Z,9.65
2023-05-28T01:48:02.281Z,11.00
2023-05-28T01:50:33.858Z,8.87
2023-05-28T01:53:04.105Z,9.52
2023-05-28T01:55:36.230Z,13.63
2023-05-28T01:58:07.393Z,10.35
2023-05-28T02:00:45.409Z,14.30
2023-05-28T02:03:16.256Z,13.30
2023-05-28T02:05:46.714Z,10.68
2023-05-28T02:08:18.376Z,11.80
2023-05-28T02:10:48.737Z,10.45
2023-05-28T02:13:19.946Z,11.60
2023-05-28T02:15:50.289Z,11.27
2023-05-28T02:18:21.014Z,11.17
2023-05-28T02:20:51.620Z,10.27
2023-05-28T02:23:21.901Z,11.20
2023-05-28T02:25:52.687Z,12.67
2023-05-28T02:28:23.165Z,14.15
2023-05-28T02:30:54.908Z,11.35
2023-05-28T02:33:27.130Z,12.13
2023-05-28T02:35:58.155Z,14.60
2023-05-28T02:38:28.726Z,15.07
2023-05-28T02:40:59.090Z,14.57
2023-05-28T02:43:29.490Z,10.93
2023-05-28T02:46:00.418Z,15.50
2023-05-28T02:48:31.119Z,15.57
2023-05-28T02:51:01.815Z,13.32
2023-05-28T02:53:55.201Z,18.05
2023-05-28T02:56:27.499Z,17.60
2023-05-28T03:01:30.373Z,14.70
2023-05-28T03:04:01.097Z,15.45
2023-05-28T03:06:31.266Z,20.10
2023-05-28T03:09:01.617Z,18.33
2023-05-28T03:11:32.081Z,18.10
2023-05-28T03:14:02.329Z,15.40
2023-05-28T03:16:36.151Z,18.07
2023-05-28T03:19:09.357Z,18.45
2023-05-28T03:21:39.688Z,20.37
2023-05-28T03:24:10.784Z,17.30
2023-05-28T03:26:47.013Z,23.30
2023-05-28T03:29:23.035Z,17.50
2023-05-28T03:32:19.376Z,35.60
2023-05-28T03:34:49.925Z,27.10
2023-05-28T03:37:26.207Z,34.30
2023-05-28T03:42:27.634Z,29.50
2023-05-28T03:44:58.009Z,106.43
2023-05-28T03:47:30.248Z,38.72
2023-05-28T03:50:02.094Z,24.65
2023-05-28T03:52:32.510Z,24.10
2023-05-28T03:55:03.823Z,21.27
2023-05-28T03:57:35.183Z,34.83
2023-05-28T04:00:06.368Z,44.37
2023-05-28T04:02:46.631Z,34.78
2023-05-28T04:05:18.749Z,21.50
2023-05-28T04:07:49.128Z,22.93
2023-05-28T04:10:19.313Z,19.85
2023-05-28T04:56:50.116Z,21.88
2023-05-28T04:59:20.516Z,21.03
2023-05-28T05:01:53.193Z,23.92
2023-05-28T05:04:24.125Z,21.17
2023-05-28T05:09:26.569Z,18.27
2023-05-28T05:11:56.834Z,20.40
2023-05-28T05:14:27.097Z,19.60
2023-05-28T05:16:57.393Z,20.35
2023-05-28T05:19:28.850Z,19.03
2023-05-28T05:21:59.277Z,24.60
2023-05-28T05:24:29.667Z,23.17
2023-05-28T05:27:00.166Z,25.60
2023-05-28T05:29:30.909Z,22.77
2023-05-28T05:32:01.850Z,20.60
2023-05-28T05:34:32.250Z,20.00
2023-05-28T05:37:21.018Z,21.10
2023-05-28T05:40:12.442Z,20.88
2023-05-28T05:42:54.658Z,21.17
2023-05-28T05:45:25.402Z,19.10
2023-05-28T05:47:56.940Z,26.65
2023-05-28T05:50:27.877Z,21.63
2023-05-28T05:52:58.777Z,18.73
2023-05-28T05:55:30.500Z,21.83
2023-05-28T05:58:02.172Z,22.23
2023-05-28T06:00:32.642Z,19.10
2023-05-28T06:03:04.016Z,22.30
2023-05-28T06:05:55.221Z,21.33
2023-05-28T06:08:51.672Z,22.98
2023-05-28T06:11:37.971Z,29.27
2023-05-28T06:14:08.700Z,24.77
2023-05-28T06:16:40.465Z,23.05
2023-05-28T06:19:11.373Z,24.47
2023-05-28T06:21:41.855Z,26.60
2023-05-28T06:24:14.256Z,23.20
2023-05-28T06:26:47.300Z,21.17
2023-05-28T06:29:18.339Z,22.88
2023-05-28T06:31:49.402Z,24.38
2023-05-28T06:34:20.427Z,23.52
2023-05-28T06:36:51.598Z,24.13
2023-05-28T06:39:22.356Z,22.97
2023-05-28T06:41:54.826Z,22.13
2023-05-28T06:44:39.611Z,19.48
2023-05-28T06:47:16.677Z,22.48
2023-05-28T06:49:47.962Z,18.63
2023-05-28T06:52:18.593Z,18.73
2023-05-28T06:54:51.398Z,18.92
2023-05-28T06:57:22.950Z,20.95
2023-05-28T07:00:18.234Z,17.42
2023-05-28T07:03:08.976Z,18.73
2023-05-28T07:06:03.518Z,19.45
2023-05-28T07:08:34.417Z,20.85
2023-05-28T07:11:04.894Z,20.33
2023-05-28T07:13:35.421Z,17.83
2023-05-28T07:16:05.841Z,18.55
2023-05-28T07:18:36.568Z,20.17
2023-05-28T07:21:09.262Z,18.58
2023-05-28T07:23:45.216Z,16.30
2023-05-28T07:26:15.847Z,17.17
2023-05-28T07:28:46.348Z,16.77
2023-05-28T07:31:17.676Z,18.03
2023-05-28T07:33:49.140Z,20.50
2023-05-28T07:36:20.465Z,22.40
2023-05-28T07:38:50.859Z,22.37
2023-05-28T07:41:22.075Z,18.83
2023-05-28T07:44:00.077Z,19.23
2023-05-28T07:46:34.919Z,25.40
2023-05-28T07:49:14.177Z,22.80
2023-05-28T07:51:51.026Z,17.85
2023-05-28T07:54:25.220Z,21.40
2023-05-28T07:56:56.705Z,24.38
2023-05-28T07:59:33.547Z,21.75
2023-05-28T08:02:06.191Z,22.08
2023-05-28T08:04:36.743Z,19.43
2023-05-28T08:07:09.759Z,25.05
2023-05-28T08:12:11.482Z,22.55
2023-05-28T08:14:41.832Z,21.27
2023-05-28T08:17:13.968Z,18.20
2023-05-28T08:20:01.169Z,23.05
2023-05-28T08:22:47.387Z,21.75
2023-05-28T08:25:19.842Z,24.00
2023-05-28T08:27:53.778Z,22.58
2023-05-28T08:30:24.789Z,22.02
2023-05-28T08:33:34.269Z,24.92
2023-05-28T08:36:05.559Z,22.35
2023-05-28T08:41:08.958Z,24.05
2023-05-28T08:43:39.415Z,19.75
2023-05-28T08:46:09.883Z,20.40
2023-05-28T08:49:01.898Z,18.90
2023-05-28T08:51:36.839Z,23.38
2023-05-28T08:54:08.218Z,21.63
2023-05-28T08:56:39.704Z,24.63
2023-05-28T08:59:14.453Z,20.05
2023-05-28T09:01:45.179Z,23.00
2023-05-28T09:04:22.878Z,22.98
2023-05-28T09:06:57.416Z,23.67
2023-05-28T09:09:49.486Z,21.40
2023-05-28T09:12:25.317Z,18.23
2023-05-28T09:15:02.762Z,18.15
2023-05-28T09:17:38.042Z,18.58
2023-05-28T09:20:17.954Z,18.52
2023-05-28T09:22:49.147Z,18.65
2023-05-28T09:25:38.432Z,23.35
2023-05-28T09:28:21.630Z,18.63
2023-05-28T09:30:54.232Z,18.30
2023-05-28T09:33:24.788Z,19.50
2023-05-28T09:36:05.919Z,17.90
2023-05-28T09:41:30.916Z,16.65
2023-05-28T09:44:03.801Z,18.00
2023-05-28T09:46:36.630Z,16.65
2023-05-28T09:49:07.992Z,17.25
2023-05-28T09:51:39.653Z,18.10
2023-05-28T09:54:12.571Z,16.63
2023-05-28T09:56:44.812Z,16.20
2023-05-28T09:59:20.788Z,18.20
2023-05-28T10:02:03.159Z,17.08
2023-05-28T10:04:39.321Z,18.20
2023-05-28T10:07:09.978Z,17.50
2023-05-28T10:09:43.118Z,16.52
2023-05-28T10:12:18.519Z,17.33
2023-05-28T10:14:50.709Z,17.48
2023-05-28T10:17:21.458Z,18.15
2023-05-28T10:19:52.038Z,17.55
2023-05-28T10:22:22.925Z,19.80
2023-05-28T10:24:54.168Z,19.30
2023-05-28T10:27:32.130Z,17.75
2023-05-28T10:30:07.320Z,17.58
2023-05-28T10:32:44.769Z,22.35
2023-05-28T10:35:15.936Z,19.27
2023-05-28T10:40:27.377Z,17.40
2023-05-28T10:42:57.778Z,23.52
2023-05-28T10:45:39.601Z,20.90
2023-05-28T10:48:11.134Z,19.25
2023-05-28T10:51:00.932Z,27.75
2023-05-28T10:53:31.305Z,20.88
2023-05-28T10:56:01.920Z,15.63
2023-05-28T10:58:39.548Z,15.95
2023-05-28T11:01:24.969Z,16.30
2023-05-28T11:03:58.666Z,21.10
2023-05-28T11:06:30.206Z,19.98
2023-05-28T11:09:01.327Z,17.05
2023-05-28T11:14:05.462Z,20.92
2023-05-28T11:16:35.963Z,18.45
2023-05-28T11:19:07.529Z,21.45
2023-05-28T11:21:39.415Z,23.40
2023-05-28T11:24:09.990Z,19.92
2023-05-28T11:26:40.384Z,22.03
2023-05-28T11:29:11.132Z,17.23
2023-05-28T11:31:43.322Z,18.80
2023-05-28T11:34:14.057Z,18.05
2023-05-28T11:36:46.029Z,16.10
2023-05-28T11:39:18.645Z,16.27
2023-05-28T11:41:49.878Z,16.63
2023-05-28T11:47:00.015Z,16.42
2023-05-28T11:49:31.718Z,16.73
2023-05-28T11:52:02.314Z,16.65
2023-05-28T11:54:32.708Z,16.77
2023-05-28T11:57:06.940Z,16.30
2023-05-28T11:59:38.260Z,16.60
2023-05-28T12:02:15.778Z,18.00
2023-05-28T12:05:00.943Z,16.60
2023-05-28T12:07:34.176Z,18.45
2023-05-28T12:10:15.388Z,17.73
2023-05-28T12:15:33.175Z,19.35
2023-05-28T12:18:08.306Z,17.27
2023-05-28T12:20:44.197Z,19.70
2023-05-28T12:23:17.507Z,18.52
2023-05-28T12:25:47.972Z,20.52
2023-05-28T12:28:22.955Z,18.47
2023-05-28T12:30:56.613Z,18.95
2023-05-28T12:33:27.542Z,21.48
2023-05-28T12:35:59.811Z,16.92
2023-05-28T12:38:30.748Z,16.83
2023-05-28T12:41:02.647Z,17.15
2023-05-28T12:43:33.104Z,16.02
2023-05-28T12:46:03.710Z,16.53
2023-05-28T12:48:34.032Z,13.93
2023-05-28T12:51:04.452Z,12.15
2023-05-28T12:53:34.708Z,11.27
2023-05-28T12:56:05.119Z,11.93
2023-05-28T12:58:35.977Z,11.53
2023-05-28T13:01:06.631Z,13.02
2023-05-28T13:03:37.328Z,11.43
2023-05-28T13:06:09.160Z,11.55
2023-05-28T13:08:39.490Z,10.95
2023-05-28T13:11:09.906Z,11.50
2023-05-28T13:13:41.865Z,12.07
2023-05-28T13:16:13.438Z,11.85
2023-05-28T13:18:47.653Z,13.27
2023-05-28T13:21:18.426Z,13.27
2023-05-28T13:23:48.752Z,14.02
2023-05-28T13:26:19.262Z,13.03
2023-05-28T13:28:49.750Z,13.87
2023-05-28T13:31:20.191Z,14.47
2023-05-28T13:33:50.634Z,14.17
2023-05-28T13:36:21.555Z,14.37
2023-05-28T13:38:52.356Z,17.10
2023-05-28T13:41:23.039Z,18.30
2023-05-28T13:43:58.206Z,16.48
2023-05-28T13:46:28.831Z,15.60
2023-05-28T13:48:59.633Z,15.25
2023-05-28T14:29:33.667Z,12.77
2023-05-28T14:32:06.936Z,12.82
2023-05-28T14:34:37.814Z,11.80
2023-05-28T14:37:08.004Z,11.77
2023-05-28T14:39:38.298Z,11.32
2023-05-28T14:42:09.148Z,11.55
2023-05-28T14:44:40.047Z,12.00
2023-05-28T14:47:10.575Z,9.88
2023-05-28T14:49:41.492Z,10.50
2023-05-28T14:52:27.089Z,9.77
2023-05-28T14:54:58.029Z,9.57
2023-05-28T14:57:30.638Z,8.80
2023-05-28T15:00:10.213Z,9.13
2023-05-28T15:02:41.350Z,9.27
2023-05-28T15:07:43.476Z,9.30
2023-05-28T15:10:14.013Z,8.82
2023-05-28T15:12:44.547Z,8.30
2023-05-28T15:15:15.206Z,8.47
2023-05-28T15:17:45.613Z,8.65
2023-05-28T15:20:16.475Z,8.50
2023-05-28T15:22:46.958Z,8.95
2023-05-28T15:25:17.354Z,10.02
2023-05-28T15:27:47.786Z,8.67
2023-05-28T15:30:18.439Z,8.77
2023-05-28T15:32:51.406Z,9.32
2023-05-28T15:35:22.057Z,9.00
2023-05-28T15:37:52.821Z,9.52
2023-05-28T15:40:23.631Z,11.07
2023-05-28T15:42:57.972Z,9.95
2023-05-28T15:45:28.666Z,9.20
2023-05-28T15:47:59.052Z,9.13
2023-05-28T15:50:30.225Z,9.82
2023-05-28T15:55:30.609Z,9.38
2023-05-28T15:58:01.048Z,9.98
2023-05-28T16:00:31.725Z,10.00
2023-05-28T16:03:04.706Z,9.75
2023-05-28T16:05:35.624Z,10.63
2023-05-28T16:08:06.170Z,10.00
2023-05-28T16:10:37.249Z,11.55
2023-05-28T16:13:14.027Z,11.35
2023-05-28T16:15:44.805Z,10.40
2023-05-28T16:18:17.102Z,11.02
2023-05-28T16:20:48.033Z,11.10
2023-05-28T16:23:19.233Z,11.00
2023-05-28T16:25:49.983Z,12.80
2023-05-28T16:28:22.818Z,12.23
2023-05-28T16:30:53.622Z,16.02
2023-05-28T16:33:24.066Z,11.55
2023-05-28T16:35:55.179Z,13.00
2023-05-28T16:38:26.005Z,11.80
2023-05-28T16:40:56.520Z,12.93
2023-05-28T16:43:27.679Z,12.80
2023-05-28T16:45:58.524Z,12.98
2023-05-28T16:48:30.360Z,12.67
2023-05-28T16:51:04.032Z,13.02
2023-05-28T16:53:34.614Z,14.68
2023-05-28T16:56:04.924Z,13.13
2023-05-28T16:58:35.856Z,16.77
2023-05-28T17:01:07.967Z,14.75
2023-05-28T17:03:38.603Z,12.77
2023-05-28T17:06:09.245Z,12.17
2023-05-28T17:08:39.716Z,11.68
2023-05-28T17:11:10.048Z,11.85
2023-05-28T17:13:40.479Z,11.87
2023-05-28T17:16:10.928Z,12.15
2023-05-28T17:18:42.447Z,10.87
2023-05-28T17:21:13.905Z,11.20
2023-05-28T17:23:44.373Z,12.90
2023-05-28T17:26:14.683Z,11.50
2023-05-28T17:28:45.824Z,11.48
2023-05-28T17:33:45.991Z,13.23
2023-05-28T17:36:16.303Z,11.88
2023-05-28T17:38:46.647Z,11.98
2023-05-28T17:41:17.027Z,14.25
2023-05-28T17:43:48.249Z,11.00
2023-05-28T17:48:49.739Z,11.20
2023-05-28T17:51:19.932Z,10.45
2023-05-28T17:53:51.274Z,12.17
2023-05-28T17:58:52.127Z,13.23
2023-05-28T18:01:22.623Z,11.90
2023-05-28T18:03:53.131Z,11.63
2023-05-28T18:06:23.624Z,11.63
2023-05-28T18:08:53.975Z,10.63
2023-05-28T18:11:28.036Z,12.55
2023-05-28T18:13:58.490Z,11.57
2023-05-28T18:16:29.133Z,10.90
2023-05-28T18:19:02.831Z,11.70
2023-05-28T18:21:35.677Z,11.13
2023-05-28T18:24:14.212Z,11.38
2023-05-28T18:26:44.711Z,11.02
2023-05-28T18:29:14.991Z,11.55
2023-05-28T18:31:47.835Z,12.80
2023-05-28T18:34:18.291Z,10.45
2023-05-28T18:36:50.322Z,10.77
2023-05-28T18:39:20.603Z,11.00
2023-05-28T18:41:53.566Z,11.40
2023-05-28T18:44:24.563Z,10.50
2023-05-28T18:46:55.083Z,11.63
2023-05-28T18:49:25.670Z,11.60
2023-05-28T18:51:56.050Z,11.03
2023-05-28T18:54:26.475Z,10.90
2023-05-28T18:56:56.818Z,11.35
2023-05-28T18:59:27.118Z,11.33
2023-05-28T19:01:57.471Z,10.00
2023-05-28T19:04:30.531Z,10.93
2023-05-28T19:07:00.965Z,10.95
2023-05-28T19:09:31.333Z,10.73
2023-05-28T19:12:01.834Z,12.17
2023-05-28T19:14:32.164Z,10.88
2023-05-28T19:17:03.483Z,10.95
2023-05-28T19:19:35.019Z,11.00
2023-05-28T19:22:05.811Z,10.40
2023-05-28T19:24:36.369Z,12.10
2023-05-28T19:27:06.857Z,11.53
2023-05-28T19:29:37.200Z,11.80
2023-05-28T19:32:07.795Z,11.57
2023-05-28T19:34:38.992Z,10.15
2023-05-28T19:39:39.299Z,11.80
2023-05-28T19:42:09.957Z,11.03
2023-05-28T19:44:40.300Z,11.65
2023-05-28T19:47:10.903Z,10.80
2023-05-28T19:49:42.016Z,11.40
2023-05-28T19:52:12.350Z,9.95
2023-05-28T19:54:42.858Z,10.25
2023-05-28T19:57:14.761Z,10.00
2023-05-28T19:59:45.513Z,9.25
2023-05-28T20:02:15.861Z,10.50
2023-05-28T20:04:50.359Z,9.27
2023-05-28T20:07:20.757Z,10.10
2023-05-28T20:09:51.170Z,11.77
2023-05-28T20:12:21.459Z,10.07
2023-05-28T20:14:51.769Z,12.15
2023-05-28T20:17:22.182Z,10.70
2023-05-28T20:19:52.574Z,10.03
2023-05-28T20:22:25.898Z,11.50
2023-05-28T20:24:56.314Z,10.70
2023-05-28T20:27:26.481Z,10.43
2023-05-28T20:29:56.794Z,12.63
2023-05-28T20:32:27.409Z,10.75
2023-05-28T20:34:58.613Z,10.30
2023-05-28T20:37:28.943Z,12.05
2023-05-28T20:40:03.526Z,9.93
2023-05-28T20:42:33.873Z,10.82
2023-05-28T20:45:04.643Z,10.40
2023-05-28T20:47:35.131Z,11.75
2023-05-28T20:50:05.599Z,12.07
2023-05-28T20:52:36.001Z,11.60
2023-05-28T20:55:06.388Z,11.68
2023-05-28T20:57:50.744Z,13.75
2023-05-28T21:00:25.058Z,12.38
2023-05-28T21:02:59.537Z,13.07
2023-05-28T21:05:30.230Z,11.85
2023-05-28T21:08:01.314Z,13.10
2023-05-28T21:10:31.866Z,11.48
2023-05-28T21:13:02.137Z,14.33
2023-05-28T21:15:32.577Z,11.47
2023-05-28T21:18:02.865Z,13.20
2023-05-28T21:20:33.465Z,13.53
2023-05-28T21:23:03.828Z,12.17
2023-05-28T21:25:35.171Z,13.50
2023-05-28T21:28:05.499Z,12.10
2023-05-28T21:30:35.840Z,18.08
2023-05-28T21:33:06.502Z,12.93
2023-05-28T21:35:36.876Z,16.30
2023-05-28T21:38:07.329Z,12.17
2023-05-28T21:40:37.820Z,12.57
2023-05-28T21:43:08.272Z,13.27
2023-05-28T21:45:38.686Z,14.37
2023-05-28T21:48:10.088Z,13.25
2023-05-28T21:50:40.747Z,13.05
2023-05-28T21:53:11.585Z,14.40
2023-05-28T21:55:43.322Z,15.15
2023-05-28T21:58:13.656Z,14.52
2023-05-28T22:00:45.972Z,16.63
2023-05-28T22:03:16.623Z,14.43
2023-05-28T22:05:46.776Z,14.80
2023-05-28T22:08:18.946Z,13.10
2023-05-28T22:10:49.372Z,13.93
2023-05-28T22:13:21.247Z,13.17
2023-05-28T22:15:51.643Z,15.05
2023-05-28T22:18:22.237Z,13.97
2023-05-28T22:20:54.529Z,13.48
2023-05-28T22:23:24.865Z,16.05
2023-05-28T22:25:55.380Z,16.52
2023-05-28T22:28:27.073Z,16.20
2023-05-28T22:30:59.596Z,16.23
2023-05-28T22:33:30.999Z,14.40
2023-05-28T22:36:01.638Z,16.33
2023-05-28T22:38:32.017Z,15.90
2023-05-28T22:41:02.581Z,14.27
2023-05-28T22:43:33.134Z,16.73
2023-05-28T22:46:03.861Z,14.10
2023-05-28T22:48:35.839Z,13.57
2023-05-28T22:51:06.768Z,15.35
2023-05-28T22:53:37.114Z,21.17
2023-05-28T22:56:07.374Z,17.48
2023-05-28T22:58:40.414Z,16.07
2023-05-28T23:02:58.009Z,15.35
2023-05-28T23:05:28.651Z,17.55
2023-05-28T23:07:59.071Z,15.85
2023-05-28T23:10:29.693Z,15.23
2023-05-28T23:13:02.958Z,16.67
2023-05-28T23:15:34.134Z,14.43
2023-05-28T23:20:35.359Z,14.52
2023-05-28T23:23:05.774Z,14.17
2023-05-28T23:25:36.883Z,14.53
2023-05-28T23:28:07.376Z,14.98
2023-05-28T23:30:39.765Z,16.77
2023-05-28T23:33:10.375Z,16.35
2023-05-28T23:35:40.760Z,17.20
2023-05-28T23:38:11.292Z,15.45
2023-05-28T23:40:42.435Z,17.13
2023-05-28T23:43:12.745Z,15.15
2023-05-28T23:45:43.226Z,16.17
2023-05-28T23:48:14.808Z,14.87
2023-05-28T23:50:45.178Z,14.02
2023-05-28T23:53:15.613Z,14.33
2023-05-28T23:55:46.068Z,16.57
2023-05-28T23:58:16.321Z,14.73
